This demonstration page uses our WeatherBlox Daily Observations layout. Learn more.

Left ArrowRight Arrow

Hourly Observations for October 27, 2018

Temp ( °F °C ) Dew Point ( °F °C ) Humidity (%) Winds ( mph kmh ) Pressure ( in mb ) Visibility ( mi km ) Precip ( " mm )
12:54 am 00:54 Clear 44 6.7 37 2.8 76 76 Calm 29.87 1012 10 16.0934 0 0
1:54 am 01:54 Clear 41 5 35 1.7 79 79 N 3 6 29.88 1012 10 16.0934 0 0
2:54 am 02:54 Clear 41 5 36 2.2 82 82 Calm 29.88 1012 10 16.0934 0 0
3:54 am 03:54 Clear 42 5.6 36 2.2 79 79 W 3 6 29.89 1012 10 16.0934 0 0
4:54 am 04:54 Clear 41 5 36 2.2 82 82 Calm 29.89 1012 10 16.0934 0 0
5:54 am 05:54 Clear 39 3.9 35 1.7 86 86 SW 5 7 29.9 1013 10 16.0934 0 0
6:54 am 06:54 Clear 38 3.3 35 1.7 89 89 SSW 3 6 29.91 1013 10 16.0934 0 0
7:54 am 07:54 Sunny 36 2.2 34 1.1 93 93 S 5 7 29.92 1013 10 16.0934 0 0
8:54 am 08:54 Sunny 42 5.6 38 3.3 85 85 SSW 3 6 29.93 1014 10 16.0934 0 0
9:54 am 09:54 Sunny 52 11.1 41 5 66 66 W 5 7 29.92 1013 10 16.0934 0 0
10:54 am 10:54 Sunny 59 15 42 5.6 54 54 SW 5 7 29.92 1013 10 16.0934 0 0
11:54 am 11:54 Sunny 64 17.8 45 7.2 50 50 SW 6 9 29.9 1013 10 16.0934 0 0
12:54 pm 12:54 Sunny 69 20.6 43 6.1 39 39 WSW 10 17 29.88 1012 10 16.0934 0 0
1:54 pm 13:54 Sunny 72 22.2 41 5 33 33 WSW 10 17 29.85 1011 10 16.0934 0 0
2:54 pm 14:54 Sunny 73 22.8 40 4.4 30 30 SW 15 24 29.82 1010 10 16.0934 0 0
3:54 pm 15:54 Sunny 73 22.8 40 4.4 30 30 WSW 12 19 29.8 1009 10 16.0934 0 0
4:54 pm 16:54 Sunny 74 23.3 40 4.4 29 29 SW 12 19 29.79 1009 10 16.0934 0 0
5:54 pm 17:54 Sunny 69 20.6 43 6.1 39 39 S 7 11 29.8 1009 10 16.0934 0 0
6:54 pm 18:54 Clear 62 16.7 46 7.8 56 56 S 9 15 29.8 1009 10 16.0934 0 0
7:54 pm 19:54 Clear 61 16.1 46 7.8 58 58 SSE 5 7 29.8 1009 10 16.0934 0 0
8:54 pm 20:54 Mostly Cloudy 61 16.1 46 7.8 58 58 SSW 8 13 29.8 1009 10 16.0934 0 0
9:54 pm 21:54 Mostly Clear 64 17.8 45 7.2 50 50 W 15 24 29.84 1010 10 16.0934 0 0
10:04 pm 22:04 Clear 65 18.3 45 7.2 49 49 NW 22 35 29.8 1009 10 16.0934 0 0
10:54 pm 22:54 Clear 62 16.7 44 6.7 52 52 NNW 14 22 29.86 1011 10 16.0934 0 0.0254
11:54 pm 23:54 Clear 59 15 45 7.2 60 60 NNW 15 24 29.92 1013 10 16.0934 0 0

Powered by AerisWeather